createdAt,value
2023-04-26T00:00:52.576Z,144.02
2023-04-26T00:01:52.637Z,145.41
2023-04-26T00:02:52.708Z,143.19
2023-04-26T00:03:52.965Z,143.95
2023-04-26T00:04:52.798Z,142.96
2023-04-26T00:05:52.869Z,146.37
2023-04-26T00:06:52.820Z,143.51
2023-04-26T00:07:52.869Z,145.30
2023-04-26T00:08:53.135Z,142.88
2023-04-26T00:09:52.934Z,144.62
2023-04-26T00:10:52.974Z,143.30
2023-04-26T00:11:53.024Z,144.07
2023-04-26T00:12:53.046Z,144.31
2023-04-26T00:13:53.080Z,144.14
2023-04-26T00:14:53.136Z,143.59
2023-04-26T00:15:53.293Z,144.35
2023-04-26T00:16:53.279Z,143.53
2023-04-26T00:17:53.325Z,142.89
2023-04-26T00:18:53.521Z,143.24
2023-04-26T00:19:53.347Z,144.41
2023-04-26T00:20:53.357Z,144.03
2023-04-26T00:21:53.451Z,144.66
2023-04-26T00:22:53.443Z,144.05
2023-04-26T00:23:53.603Z,144.56
2023-04-26T00:24:53.568Z,142.05
2023-04-26T00:25:54.108Z,143.87
2023-04-26T00:26:53.638Z,142.59
2023-04-26T00:27:53.651Z,144.38
2023-04-26T00:28:53.938Z,143.34
2023-04-26T00:29:53.738Z,145.47
2023-04-26T00:30:53.758Z,142.61
2023-04-26T00:31:53.846Z,143.56
2023-04-26T00:32:53.914Z,144.39
2023-04-26T00:33:53.900Z,143.07
2023-04-26T00:34:53.939Z,144.08
2023-04-26T00:35:54.004Z,143.65
2023-04-26T00:36:53.998Z,142.37
2023-04-26T00:37:54.056Z,142.98
2023-04-26T00:38:54.180Z,142.88
2023-04-26T00:39:54.155Z,142.10
2023-04-26T00:40:54.160Z,142.75
2023-04-26T00:41:54.246Z,142.64
2023-04-26T00:42:54.241Z,141.65
2023-04-26T00:43:54.297Z,142.24
2023-04-26T00:44:54.347Z,142.99
2023-04-26T00:45:54.395Z,142.74
2023-04-26T00:46:54.413Z,143.17
2023-04-26T00:47:54.471Z,142.88
2023-04-26T00:48:54.616Z,144.14
2023-04-26T00:49:54.516Z,142.20
2023-04-26T00:50:54.538Z,143.11
2023-04-26T00:51:54.597Z,142.61
2023-04-26T00:52:54.619Z,142.57
2023-04-26T00:53:54.688Z,142.44
2023-04-26T00:54:54.716Z,141.99
2023-04-26T00:55:54.846Z,142.23
2023-04-26T00:56:54.810Z,143.69
2023-04-26T00:57:54.831Z,142.51
2023-04-26T00:58:55.166Z,142.35
2023-04-26T00:59:54.917Z,143.32
2023-04-26T01:00:55.031Z,143.21
2023-04-26T01:01:55.004Z,142.65
2023-04-26T01:02:55.193Z,144.07
2023-04-26T01:03:55.199Z,143.12
2023-04-26T01:04:55.168Z,143.04
2023-04-26T01:05:55.172Z,143.62
2023-04-26T01:06:55.212Z,142.61
2023-04-26T01:07:55.292Z,143.19
2023-04-26T01:08:55.312Z,144.59
2023-04-26T01:09:55.360Z,143.32
2023-04-26T01:10:55.410Z,142.08
2023-04-26T01:11:55.453Z,143.09
2023-04-26T01:12:55.482Z,142.85
2023-04-26T01:13:55.504Z,143.00
2023-04-26T01:14:55.565Z,143.22
2023-04-26T01:15:55.592Z,141.81
2023-04-26T01:16:55.697Z,141.37
2023-04-26T01:17:55.777Z,142.56
2023-04-26T01:18:55.742Z,142.83
2023-04-26T01:19:55.779Z,142.93
2023-04-26T01:20:55.823Z,142.43
2023-04-26T01:21:55.853Z,142.02
2023-04-26T01:22:55.910Z,141.52
2023-04-26T01:23:55.946Z,142.39
2023-04-26T01:24:55.984Z,141.56
2023-04-26T01:25:55.998Z,141.74
2023-04-26T01:26:56.138Z,141.49
2023-04-26T01:27:56.111Z,140.60
2023-04-26T01:28:56.142Z,141.00
2023-04-26T01:29:56.231Z,140.66
2023-04-26T01:30:56.289Z,141.84
2023-04-26T01:31:56.275Z,141.05
2023-04-26T01:32:56.368Z,140.07
2023-04-26T01:33:56.328Z,141.33
2023-04-26T01:34:56.424Z,142.08
2023-04-26T01:35:56.450Z,139.87
2023-04-26T01:36:56.472Z,141.69
2023-04-26T01:37:56.525Z,141.63
2023-04-26T01:38:56.600Z,140.25
2023-04-26T01:39:56.619Z,140.26
2023-04-26T01:40:56.635Z,141.21
2023-04-26T01:41:56.687Z,142.09
2023-04-26T01:42:56.829Z,141.96
2023-04-26T01:43:56.793Z,142.41
2023-04-26T01:44:56.855Z,141.11
2023-04-26T01:45:56.915Z,140.96
2023-04-26T01:46:56.913Z,141.09
2023-04-26T01:47:57.010Z,140.39
2023-04-26T01:48:57.022Z,140.73
2023-04-26T01:49:57.047Z,141.06
2023-04-26T01:50:57.129Z,141.11
2023-04-26T01:51:57.173Z,141.04
2023-04-26T01:52:57.205Z,139.89
2023-04-26T01:53:57.244Z,141.01
2023-04-26T01:54:57.289Z,141.45
2023-04-26T01:55:57.355Z,139.72
2023-04-26T01:56:57.395Z,139.98
2023-04-26T01:57:57.417Z,140.00
2023-04-26T01:58:57.532Z,140.27
2023-04-26T01:59:57.521Z,140.55
2023-04-26T02:00:57.580Z,139.72
2023-04-26T02:01:57.728Z,140.51
2023-04-26T02:02:57.727Z,140.02
2023-04-26T02:03:57.738Z,139.86
2023-04-26T02:04:57.812Z,140.70
2023-04-26T02:05:57.839Z,139.11
2023-04-26T02:06:57.872Z,140.47
2023-04-26T02:07:57.938Z,139.00
2023-04-26T02:08:57.973Z,139.53
2023-04-26T02:09:58.029Z,139.92
2023-04-26T02:10:58.097Z,140.24
2023-04-26T02:11:58.144Z,140.99
2023-04-26T02:12:58.175Z,141.06
2023-04-26T02:13:58.274Z,141.46
2023-04-26T02:14:58.288Z,140.04
2023-04-26T02:15:58.407Z,140.36
2023-04-26T02:16:58.372Z,140.84
2023-04-26T02:17:58.531Z,139.76
2023-04-26T02:18:58.507Z,140.47
2023-04-26T02:19:58.543Z,139.93
2023-04-26T02:20:58.619Z,139.15
2023-04-26T02:21:58.637Z,139.51
2023-04-26T02:22:58.691Z,140.26
2023-04-26T02:23:58.780Z,139.74
2023-04-26T02:24:58.818Z,140.03
2023-04-26T02:25:58.854Z,140.99
2023-04-26T02:26:58.892Z,139.62
2023-04-26T02:27:58.962Z,139.79
2023-04-26T02:28:59.005Z,139.25
2023-04-26T02:29:59.062Z,140.64
2023-04-26T02:30:59.100Z,140.97
2023-04-26T02:31:59.184Z,141.27
2023-04-26T02:32:59.268Z,140.36
2023-04-26T02:33:59.268Z,138.51
2023-04-26T02:34:59.285Z,139.84
2023-04-26T02:35:59.380Z,138.84
2023-04-26T02:36:59.422Z,140.00
2023-04-26T02:37:59.441Z,139.91
2023-04-26T02:38:59.520Z,137.18
2023-04-26T02:39:59.578Z,138.34
2023-04-26T02:40:59.611Z,138.15
2023-04-26T02:41:59.711Z,140.49
2023-04-26T02:42:59.732Z,138.71
2023-04-26T02:43:59.773Z,139.44
2023-04-26T02:44:59.829Z,138.88
2023-04-26T02:45:59.898Z,139.46
2023-04-26T02:46:59.987Z,138.87
2023-04-26T02:47:59.990Z,139.53
2023-04-26T02:49:00.005Z,140.29
2023-04-26T02:50:00.115Z,138.09
2023-04-26T02:51:00.164Z,139.13
2023-04-26T02:52:00.190Z,138.84
2023-04-26T02:53:00.227Z,138.97
2023-04-26T02:54:00.282Z,138.72
2023-04-26T02:55:00.340Z,139.23
2023-04-26T02:56:00.383Z,139.08
2023-04-26T02:57:00.431Z,138.77
2023-04-26T02:58:00.516Z,139.47
2023-04-26T02:59:00.536Z,137.83
2023-04-26T03:00:00.601Z,139.27
2023-04-26T03:01:01.625Z,141.04
2023-04-26T03:02:00.762Z,139.46
2023-04-26T03:03:00.905Z,138.61
2023-04-26T03:04:00.971Z,139.70
2023-04-26T03:05:00.854Z,138.93
2023-04-26T03:06:00.919Z,139.45
2023-04-26T03:07:00.955Z,137.76
2023-04-26T03:08:00.991Z,139.55
2023-04-26T03:09:01.077Z,138.36
2023-04-26T03:10:01.145Z,139.11
2023-04-26T03:11:01.165Z,138.95
2023-04-26T03:12:01.246Z,139.72
2023-04-26T03:13:01.256Z,138.61
2023-04-26T03:14:01.305Z,138.58
2023-04-26T03:15:01.336Z,137.28
2023-04-26T03:16:01.440Z,138.76
2023-04-26T03:17:01.614Z,139.09
2023-04-26T03:18:01.493Z,139.91
2023-04-26T03:19:01.544Z,138.47
2023-04-26T03:20:02.856Z,139.44
2023-04-26T03:21:01.648Z,138.65
2023-04-26T03:22:01.705Z,138.17
2023-04-26T03:23:01.758Z,139.13
2023-04-26T03:24:01.801Z,138.02
2023-04-26T03:25:01.834Z,139.26
2023-04-26T03:26:01.919Z,137.63
2023-04-26T03:27:01.973Z,138.39
2023-04-26T03:28:02.028Z,139.79
2023-04-26T03:29:02.081Z,138.30
2023-04-26T03:30:02.108Z,137.54
2023-04-26T03:31:02.169Z,138.69
2023-04-26T03:32:02.257Z,136.94
2023-04-26T03:33:02.255Z,139.40
2023-04-26T03:34:02.313Z,137.95
2023-04-26T03:35:02.432Z,137.44
2023-04-26T03:36:02.437Z,137.32
2023-04-26T03:37:02.468Z,138.58
2023-04-26T03:38:02.536Z,138.54
2023-04-26T03:39:02.581Z,138.37
2023-04-26T03:40:02.682Z,137.63
2023-04-26T03:41:02.717Z,136.62
2023-04-26T03:42:02.769Z,138.77
2023-04-26T03:43:02.822Z,137.81
2023-04-26T03:44:02.870Z,137.89
2023-04-26T03:45:02.921Z,136.87
2023-04-26T03:46:02.984Z,138.37
2023-04-26T03:47:03.037Z,137.51
2023-04-26T03:48:03.139Z,138.75
2023-04-26T03:49:03.146Z,139.37
2023-04-26T03:50:03.201Z,136.40
2023-04-26T03:51:03.275Z,138.72
2023-04-26T03:52:03.316Z,141.20
2023-04-26T03:53:03.393Z,136.43
2023-04-26T03:54:03.416Z,137.61
2023-04-26T03:55:03.479Z,136.48
2023-04-26T03:56:03.557Z,138.28
2023-04-26T03:57:03.595Z,137.03
2023-04-26T03:58:03.657Z,137.41
2023-04-26T03:59:03.712Z,139.11
2023-04-26T04:00:03.763Z,137.32
2023-04-26T04:01:03.839Z,139.14
2023-04-26T04:02:04.027Z,136.97
2023-04-26T04:03:04.020Z,138.85
2023-04-26T04:04:04.126Z,138.34
2023-04-26T04:05:04.102Z,137.11
2023-04-26T04:06:04.110Z,136.84
2023-04-26T04:07:04.178Z,137.17
2023-04-26T04:08:04.220Z,136.71
2023-04-26T04:09:04.283Z,138.15
2023-04-26T04:10:04.316Z,137.79
2023-04-26T04:11:04.394Z,138.63
2023-04-26T04:12:04.441Z,136.42
2023-04-26T04:13:04.494Z,137.25
2023-04-26T04:14:04.541Z,137.58
2023-04-26T04:15:04.589Z,138.03
2023-04-26T04:16:04.690Z,137.73
2023-04-26T04:17:04.694Z,137.92
2023-04-26T04:18:04.751Z,137.33
2023-04-26T04:19:04.805Z,140.69
2023-04-26T04:20:04.879Z,137.64
2023-04-26T04:21:04.924Z,137.78
2023-04-26T04:22:04.946Z,136.93
2023-04-26T04:23:05.023Z,137.09
2023-04-26T04:24:05.041Z,138.10
2023-04-26T04:25:05.100Z,138.32
2023-04-26T04:26:05.192Z,137.44
2023-04-26T04:27:05.235Z,138.21
2023-04-26T04:28:05.260Z,136.59
2023-04-26T04:29:05.317Z,137.03
2023-04-26T04:30:05.344Z,139.30
2023-04-26T04:31:05.406Z,139.37
2023-04-26T04:32:05.477Z,137.82
2023-04-26T04:33:05.731Z,138.97
2023-04-26T04:34:05.561Z,139.65
2023-04-26T04:35:05.656Z,139.34
2023-04-26T04:36:05.682Z,140.56
2023-04-26T04:37:05.751Z,137.10
2023-04-26T04:38:05.817Z,138.82
2023-04-26T04:39:05.853Z,137.17
2023-04-26T04:40:05.894Z,138.28
2023-04-26T04:41:05.928Z,137.18
2023-04-26T04:42:06.001Z,138.36
2023-04-26T04:43:06.063Z,137.01
2023-04-26T04:44:06.090Z,137.95
2023-04-26T04:45:06.161Z,139.15
2023-04-26T04:46:06.246Z,136.23
2023-04-26T04:47:06.309Z,137.66
2023-04-26T04:48:06.410Z,138.93
2023-04-26T04:49:06.382Z,137.10
2023-04-26T04:50:06.461Z,138.95
2023-04-26T04:51:06.516Z,137.62
2023-04-26T04:52:06.568Z,135.58
2023-04-26T04:53:06.629Z,137.29
2023-04-26T04:54:06.710Z,138.01
2023-04-26T04:55:06.703Z,136.20
2023-04-26T04:56:06.762Z,136.37
2023-04-26T04:57:06.808Z,138.05
2023-04-26T04:58:06.877Z,136.34
2023-04-26T04:59:06.944Z,134.82
2023-04-26T05:00:06.985Z,137.23
2023-04-26T05:01:07.082Z,137.22
2023-04-26T05:02:07.232Z,136.74
2023-04-26T05:03:07.249Z,133.52
2023-04-26T05:04:07.441Z,137.69
2023-04-26T05:05:07.425Z,137.22
2023-04-26T05:06:07.326Z,136.04
2023-04-26T05:07:07.360Z,136.77
2023-04-26T05:08:07.456Z,136.56
2023-04-26T05:09:07.486Z,136.26
2023-04-26T05:10:07.571Z,135.23
2023-04-26T05:11:07.617Z,136.58
2023-04-26T05:12:07.679Z,136.84
2023-04-26T05:13:07.701Z,136.60
2023-04-26T05:14:07.776Z,136.85
2023-04-26T05:15:07.843Z,135.78
2023-04-26T05:16:07.873Z,135.97
2023-04-26T05:17:07.937Z,138.26
2023-04-26T05:18:07.989Z,136.46
2023-04-26T05:19:09.573Z,135.62
2023-04-26T05:20:08.086Z,137.67
2023-04-26T05:21:08.144Z,136.91
2023-04-26T05:22:08.208Z,137.19
2023-04-26T05:23:08.263Z,136.37
2023-04-26T05:24:08.305Z,137.97
2023-04-26T05:25:08.392Z,136.39
2023-04-26T05:26:08.393Z,135.98
2023-04-26T05:27:08.450Z,137.33
2023-04-26T05:28:08.508Z,136.82
2023-04-26T05:29:08.573Z,137.54
2023-04-26T05:30:08.611Z,136.83
2023-04-26T05:31:10.732Z,137.65
2023-04-26T05:32:08.877Z,138.68
2023-04-26T05:33:08.705Z,140.28
2023-04-26T05:34:08.683Z,139.26
2023-04-26T05:35:08.651Z,139.45
2023-04-26T05:36:08.638Z,137.05
2023-04-26T05:37:08.695Z,137.75
2023-04-26T05:38:08.624Z,139.61
2023-04-26T05:39:08.623Z,140.41
2023-04-26T05:40:08.636Z,141.46
2023-04-26T05:41:08.585Z,143.41
2023-04-26T05:42:08.595Z,144.03
2023-04-26T05:43:08.586Z,145.54
2023-04-26T05:44:08.588Z,143.95
2023-04-26T05:45:08.545Z,145.31
2023-04-26T05:46:08.615Z,146.57
2023-04-26T05:47:08.576Z,148.34
2023-04-26T05:48:08.636Z,149.41
2023-04-26T05:49:08.571Z,151.28
2023-04-26T05:50:08.754Z,150.71
2023-04-26T05:51:08.522Z,154.27
2023-04-26T05:52:08.527Z,157.44
2023-04-26T05:53:08.551Z,164.31
2023-04-26T05:54:08.497Z,166.81
2023-04-26T05:55:08.773Z,174.96
2023-04-26T05:56:08.537Z,178.32
2023-04-26T05:57:08.535Z,186.57
2023-04-26T05:58:08.478Z,190.84
2023-04-26T05:59:08.473Z,196.57
2023-04-26T06:00:08.479Z,200.90
2023-04-26T06:01:08.448Z,206.75
2023-04-26T06:02:08.468Z,211.72
2023-04-26T06:03:08.631Z,217.11
2023-04-26T06:04:08.942Z,221.89
2023-04-26T06:05:08.709Z,226.25
2023-04-26T06:06:08.453Z,230.96
2023-04-26T06:07:08.426Z,236.67
2023-04-26T06:08:08.403Z,242.61
2023-04-26T06:09:08.412Z,245.03
2023-04-26T06:10:08.412Z,250.36
2023-04-26T06:11:08.411Z,250.52
2023-04-26T06:12:08.394Z,251.42
2023-04-26T06:13:08.385Z,254.35
2023-04-26T06:14:14.286Z,260.49
2023-04-26T06:15:09.392Z,251.18
2023-04-26T06:16:08.379Z,254.33
2023-04-26T06:17:08.402Z,260.39
2023-04-26T06:18:08.393Z,270.28
2023-04-26T06:19:08.335Z,284.62
2023-04-26T06:20:08.343Z,270.38
2023-04-26T06:21:08.359Z,257.57
2023-04-26T06:22:08.342Z,249.81
2023-04-26T06:23:08.346Z,238.59
2023-04-26T06:24:08.309Z,163.91
2023-04-26T06:25:08.319Z,133.14
2023-04-26T06:26:08.308Z,109.56
2023-04-26T06:27:08.300Z,81.05
2023-04-26T06:28:08.301Z,59.95
2023-04-26T06:29:08.323Z,55.51
2023-04-26T06:30:08.266Z,35.31
2023-04-26T06:31:08.300Z,22.53
2023-04-26T06:32:08.282Z,40.40
2023-04-26T06:33:08.296Z,45.43
2023-04-26T06:34:08.583Z,54.34
2023-04-26T06:35:08.519Z,56.10
2023-04-26T06:36:08.392Z,67.22
2023-04-26T06:37:08.452Z,79.70
2023-04-26T06:38:08.496Z,85.72
2023-04-26T06:39:08.519Z,95.68
2023-04-26T06:40:08.632Z,100.99
2023-04-26T06:41:08.573Z,107.92
2023-04-26T06:42:08.599Z,113.38
2023-04-26T06:43:08.604Z,122.04
2023-04-26T06:44:08.632Z,127.05
2023-04-26T06:45:08.683Z,132.17
2023-04-26T06:46:08.765Z,139.29
2023-04-26T06:47:08.781Z,145.00
2023-04-26T06:48:08.887Z,150.56
2023-04-26T06:49:08.875Z,153.58
2023-04-26T06:50:09.279Z,159.73
2023-04-26T06:51:08.984Z,165.33
2023-04-26T06:52:09.665Z,168.92
2023-04-26T06:53:09.011Z,169.88
2023-04-26T06:54:09.143Z,173.79
2023-04-26T06:55:09.084Z,158.25
2023-04-26T06:56:09.129Z,151.91
2023-04-26T06:57:09.208Z,131.69
2023-04-26T06:58:09.237Z,122.00
2023-04-26T06:59:09.250Z,107.61
2023-04-26T07:00:09.312Z,97.40
2023-04-26T07:01:09.319Z,89.08
2023-04-26T07:02:09.362Z,75.57
2023-04-26T07:03:09.418Z,72.07
2023-04-26T07:04:09.411Z,69.26
2023-04-26T07:05:09.423Z,56.85
2023-04-26T07:06:09.397Z,53.06
2023-04-26T07:07:10.522Z,57.02
2023-04-26T07:08:09.426Z,67.79
2023-04-26T07:09:09.406Z,78.69
2023-04-26T07:10:09.409Z,86.79
2023-04-26T07:11:09.524Z,96.69
2023-04-26T07:12:09.383Z,102.60
2023-04-26T07:13:09.736Z,110.98
2023-04-26T07:14:09.375Z,116.42
2023-04-26T07:15:09.365Z,124.32
2023-04-26T07:16:09.386Z,131.01
2023-04-26T07:17:09.465Z,136.28
2023-04-26T07:18:09.452Z,143.03
2023-04-26T07:19:09.331Z,148.56
2023-04-26T07:20:09.319Z,151.88
2023-04-26T07:21:09.355Z,155.85
2023-04-26T07:22:09.330Z,161.36
2023-04-26T07:23:09.305Z,166.25
2023-04-26T07:24:09.316Z,170.54
2023-04-26T07:25:09.289Z,174.90
2023-04-26T07:26:09.311Z,179.56
2023-04-26T07:27:09.271Z,183.35
2023-04-26T07:28:09.259Z,186.96
2023-04-26T07:29:09.264Z,193.19
2023-04-26T07:30:09.291Z,196.51
2023-04-26T07:31:10.874Z,193.24
2023-04-26T07:32:09.272Z,198.42
2023-04-26T07:33:09.327Z,200.93
2023-04-26T07:34:09.256Z,202.01
2023-04-26T07:35:09.223Z,200.40
2023-04-26T07:36:09.264Z,199.21
2023-04-26T07:37:09.224Z,201.68
2023-04-26T07:38:09.253Z,200.44
2023-04-26T07:39:09.226Z,201.68
2023-04-26T07:40:09.303Z,201.21
2023-04-26T07:41:09.211Z,209.88
2023-04-26T07:42:09.217Z,212.00
2023-04-26T07:43:09.176Z,215.92
2023-04-26T07:44:09.151Z,216.54
2023-04-26T07:45:09.359Z,217.95
2023-04-26T07:46:09.221Z,216.17
2023-04-26T07:47:09.130Z,221.49
2023-04-26T07:48:09.189Z,221.17
2023-04-26T07:49:09.132Z,223.45
2023-04-26T07:50:09.141Z,217.36
2023-04-26T07:51:09.160Z,146.65
2023-04-26T07:52:09.140Z,101.43
2023-04-26T07:53:09.120Z,82.12
2023-04-26T07:54:09.091Z,65.06
2023-04-26T07:55:09.098Z,46.64
2023-04-26T07:56:09.109Z,42.26
2023-04-26T07:57:09.126Z,46.55
2023-04-26T07:58:09.164Z,53.70
2023-04-26T07:59:09.171Z,65.55
2023-04-26T08:00:09.205Z,77.92
2023-04-26T08:01:09.238Z,85.16
2023-04-26T08:02:09.227Z,89.60
2023-04-26T08:03:09.415Z,96.81
2023-04-26T08:04:09.356Z,101.35
2023-04-26T08:05:09.528Z,99.99
2023-04-26T08:06:09.381Z,102.09
2023-04-26T08:07:09.373Z,105.14
2023-04-26T08:08:09.441Z,111.93
2023-04-26T08:09:09.518Z,113.44
2023-04-26T08:10:09.550Z,118.24
2023-04-26T08:11:09.601Z,123.40
2023-04-26T08:12:10.369Z,127.82
2023-04-26T08:13:09.672Z,133.39
2023-04-26T08:14:09.713Z,135.68
2023-04-26T08:15:09.737Z,141.48
2023-04-26T08:16:09.759Z,145.50
2023-04-26T08:17:09.800Z,149.11
2023-04-26T08:18:09.858Z,153.62
2023-04-26T08:19:09.857Z,158.14
2023-04-26T08:20:09.961Z,162.27
2023-04-26T08:21:09.894Z,165.99
2023-04-26T08:22:09.920Z,170.60
2023-04-26T08:23:09.919Z,175.24
2023-04-26T08:24:09.927Z,178.29
2023-04-26T08:25:09.955Z,181.43
2023-04-26T08:26:09.992Z,185.97
2023-04-26T08:27:10.017Z,189.16
2023-04-26T08:28:09.989Z,194.97
2023-04-26T08:29:10.060Z,198.20
2023-04-26T08:30:10.040Z,200.75
2023-04-26T08:31:10.152Z,205.35
2023-04-26T08:32:10.035Z,205.58
2023-04-26T08:33:10.156Z,208.96
2023-04-26T08:34:10.060Z,212.24
2023-04-26T08:35:10.332Z,216.80
2023-04-26T08:36:10.068Z,217.71
2023-04-26T08:37:10.054Z,220.64
2023-04-26T08:38:10.047Z,225.91
2023-04-26T08:39:10.037Z,229.88
2023-04-26T08:40:10.341Z,232.55
2023-04-26T08:41:10.102Z,236.85
2023-04-26T08:42:10.081Z,239.36
2023-04-26T08:43:10.145Z,241.46
2023-04-26T08:44:10.226Z,243.71
2023-04-26T08:45:10.311Z,245.86
2023-04-26T08:46:10.302Z,249.41
2023-04-26T08:47:10.334Z,249.82
2023-04-26T08:48:10.415Z,250.00
2023-04-26T08:49:10.577Z,250.00
2023-04-26T08:50:10.896Z,251.37
2023-04-26T08:51:10.527Z,250.77
2023-04-26T08:52:10.597Z,243.32
2023-04-26T08:53:10.576Z,232.38
2023-04-26T08:54:10.610Z,189.52
2023-04-26T08:55:10.644Z,163.43
2023-04-26T08:56:10.860Z,149.76
2023-04-26T08:57:10.684Z,120.92
2023-04-26T08:58:11.350Z,105.92
2023-04-26T08:59:10.808Z,85.46
2023-04-26T09:00:10.829Z,68.84
2023-04-26T09:01:10.891Z,54.97
2023-04-26T09:02:10.855Z,47.43
2023-04-26T09:03:11.003Z,44.38
2023-04-26T09:04:11.150Z,25.00
2023-04-26T09:05:11.380Z,25.00
2023-04-26T09:06:11.356Z,25.58
2023-04-26T09:07:10.970Z,23.06
2023-04-26T09:08:11.022Z,25.94
2023-04-26T09:09:11.047Z,23.20
2023-04-26T09:10:11.076Z,23.99
2023-04-26T09:11:11.109Z,28.05
2023-04-26T09:12:11.174Z,23.75
2023-04-26T09:13:11.209Z,29.55
2023-04-26T09:14:11.273Z,25.23
2023-04-26T09:15:11.280Z,24.65
2023-04-26T09:16:11.313Z,24.84
2023-04-26T09:17:11.374Z,23.63
2023-04-26T09:18:11.372Z,27.33
2023-04-26T09:19:11.426Z,26.82
2023-04-26T09:20:11.501Z,30.06
2023-04-26T09:21:11.506Z,29.48
2023-04-26T09:22:11.542Z,31.17
2023-04-26T09:23:11.632Z,24.78
2023-04-26T09:24:11.692Z,25.00
2023-04-26T09:25:11.810Z,34.26
2023-04-26T09:26:11.803Z,42.72
2023-04-26T09:27:11.864Z,49.28
2023-04-26T09:28:11.928Z,40.80
2023-04-26T09:29:11.966Z,38.55
2023-04-26T09:30:11.996Z,39.16
2023-04-26T09:31:12.046Z,32.07
2023-04-26T09:32:12.096Z,31.12
2023-04-26T09:33:12.168Z,27.21
2023-04-26T09:34:12.190Z,12.44
2023-04-26T09:35:12.253Z,27.02
2023-04-26T09:36:12.301Z,35.54
2023-04-26T09:37:12.300Z,38.01
2023-04-26T09:38:13.589Z,40.35
2023-04-26T09:39:12.367Z,41.27
2023-04-26T09:40:12.448Z,47.94
2023-04-26T09:41:12.842Z,47.55
2023-04-26T09:42:12.550Z,52.49
2023-04-26T09:43:12.602Z,60.56
2023-04-26T09:44:12.639Z,68.18
2023-04-26T09:45:12.641Z,71.36
2023-04-26T09:46:12.886Z,72.21
2023-04-26T09:47:12.795Z,77.87
2023-04-26T09:48:12.717Z,85.38
2023-04-26T09:49:12.711Z,94.40
2023-04-26T09:50:12.720Z,97.34
2023-04-26T09:51:12.726Z,103.64
2023-04-26T09:52:12.703Z,95.58
2023-04-26T09:53:12.734Z,105.93
2023-04-26T09:54:12.735Z,112.18
2023-04-26T09:55:25.351Z,106.80
2023-04-26T09:56:13.759Z,106.82
2023-04-26T09:57:12.733Z,107.05
2023-04-26T09:58:12.713Z,110.61
2023-04-26T09:59:12.723Z,112.09
2023-04-26T10:00:12.713Z,123.42
2023-04-26T10:01:12.726Z,126.96
2023-04-26T10:02:12.703Z,130.19
2023-04-26T10:03:12.818Z,133.95
2023-04-26T10:04:12.810Z,130.10
2023-04-26T10:05:12.746Z,116.24
2023-04-26T10:06:12.804Z,121.05
2023-04-26T10:07:12.863Z,124.12
2023-04-26T10:08:12.922Z,125.25
2023-04-26T10:09:12.994Z,132.67
2023-04-26T10:10:13.027Z,129.96
2023-04-26T10:11:13.210Z,114.41
2023-04-26T10:12:13.168Z,110.03
2023-04-26T10:13:13.214Z,105.22
2023-04-26T10:14:13.241Z,106.29
2023-04-26T10:15:13.323Z,106.04
2023-04-26T10:16:13.441Z,109.39
2023-04-26T10:17:13.430Z,115.55
2023-04-26T10:18:13.528Z,120.04
2023-04-26T10:19:13.558Z,121.92
2023-04-26T10:20:13.608Z,127.09
2023-04-26T10:21:13.680Z,130.03
2023-04-26T10:22:13.721Z,129.76
2023-04-26T10:23:15.474Z,133.73
2023-04-26T10:24:13.769Z,136.57
2023-04-26T10:25:13.753Z,136.81
2023-04-26T10:26:13.773Z,121.35
2023-04-26T10:27:13.755Z,124.44
2023-04-26T10:28:13.750Z,99.53
2023-04-26T10:29:13.727Z,108.89
2023-04-26T10:30:13.710Z,108.07
2023-04-26T10:31:13.716Z,103.71
2023-04-26T10:32:13.730Z,107.77
2023-04-26T10:33:13.802Z,111.72
2023-04-26T10:34:13.699Z,116.71
2023-04-26T10:35:13.715Z,113.87
2023-04-26T10:36:13.937Z,114.44
2023-04-26T10:37:13.668Z,110.79
2023-04-26T10:38:13.662Z,110.48
2023-04-26T10:39:13.661Z,116.12
2023-04-26T10:40:13.651Z,121.89
2023-04-26T10:41:13.643Z,123.15
2023-04-26T10:42:13.706Z,121.53
2023-04-26T10:43:13.816Z,121.82
2023-04-26T10:44:13.636Z,123.39
2023-04-26T10:45:13.611Z,125.79
2023-04-26T10:46:14.487Z,128.88
2023-04-26T10:47:13.619Z,130.65
2023-04-26T10:48:13.628Z,132.59
2023-04-26T10:49:13.587Z,134.00
2023-04-26T10:50:13.596Z,134.91
2023-04-26T10:51:13.564Z,134.02
2023-04-26T10:52:13.562Z,134.51
2023-04-26T10:53:13.553Z,135.14
2023-04-26T10:54:13.536Z,133.94
2023-04-26T10:55:13.573Z,133.26
2023-04-26T10:56:13.577Z,134.35
2023-04-26T10:57:13.570Z,135.86
2023-04-26T10:58:13.518Z,135.56
2023-04-26T10:59:33.214Z,136.06
2023-04-26T11:00:14.609Z,136.17
2023-04-26T11:01:13.622Z,136.38
2023-04-26T11:02:13.562Z,136.48
2023-04-26T11:03:13.671Z,136.49
2023-04-26T11:04:13.621Z,137.27
2023-04-26T11:05:13.538Z,136.75
2023-04-26T11:06:13.528Z,134.49
2023-04-26T11:07:13.495Z,137.43
2023-04-26T11:08:13.501Z,137.23
2023-04-26T11:09:13.478Z,136.96
2023-04-26T11:10:13.493Z,138.05
2023-04-26T11:11:13.508Z,139.18
2023-04-26T11:12:13.487Z,139.47
2023-04-26T11:13:13.511Z,139.80
2023-04-26T11:14:13.571Z,139.38
2023-04-26T11:15:13.562Z,140.39
2023-04-26T11:16:13.685Z,141.52
2023-04-26T11:17:13.614Z,142.36
2023-04-26T11:18:13.635Z,141.56
2023-04-26T11:19:13.694Z,142.42
2023-04-26T11:20:13.715Z,142.07
2023-04-26T11:21:13.689Z,142.11
2023-04-26T11:22:13.685Z,142.12
2023-04-26T11:23:13.697Z,141.57
2023-04-26T11:24:13.675Z,142.97
2023-04-26T11:25:13.684Z,144.38
2023-04-26T11:26:13.915Z,146.04
2023-04-26T11:27:13.646Z,146.33
2023-04-26T11:28:13.661Z,148.78
2023-04-26T11:29:13.665Z,148.97
2023-04-26T11:30:13.660Z,146.93
2023-04-26T11:31:13.934Z,147.55
2023-04-26T11:32:13.610Z,149.60
2023-04-26T11:33:13.615Z,150.67
2023-04-26T11:34:13.611Z,149.61
2023-04-26T11:35:13.614Z,148.71
2023-04-26T11:36:13.601Z,149.24
2023-04-26T11:37:13.633Z,149.11
2023-04-26T11:38:13.647Z,151.14
2023-04-26T11:39:14.322Z,150.90
2023-04-26T11:40:13.784Z,151.62
2023-04-26T11:41:13.792Z,152.89
2023-04-26T11:42:13.789Z,153.52
2023-04-26T11:43:13.839Z,154.29
2023-04-26T11:44:13.849Z,145.65
2023-04-26T11:45:13.858Z,115.05
2023-04-26T11:46:13.934Z,74.08
2023-04-26T11:47:14.006Z,56.88
2023-04-26T11:48:14.067Z,20.28
2023-04-26T11:49:14.047Z,29.43
2023-04-26T11:50:14.069Z,16.48
2023-04-26T11:51:14.047Z,17.75
2023-04-26T11:52:14.047Z,16.77
2023-04-26T11:53:14.042Z,15.58
2023-04-26T11:54:14.079Z,22.16
2023-04-26T11:55:14.081Z,24.90
2023-04-26T11:56:14.104Z,21.01
2023-04-26T11:57:17.049Z,14.03
2023-04-26T11:58:14.088Z,14.51
2023-04-26T11:59:14.083Z,16.65
2023-04-26T12:00:14.096Z,20.72
2023-04-26T12:01:14.102Z,18.51
2023-04-26T12:02:14.238Z,40.99
2023-04-26T12:03:14.297Z,36.71
2023-04-26T12:04:14.179Z,48.41
2023-04-26T12:05:14.184Z,32.51
2023-04-26T12:06:14.053Z,34.37
2023-04-26T12:07:14.012Z,23.28
2023-04-26T12:08:14.035Z,30.55
2023-04-26T12:09:14.050Z,28.83
2023-04-26T12:10:14.009Z,25.73
2023-04-26T12:11:14.000Z,24.97
2023-04-26T12:12:14.052Z,28.82
2023-04-26T12:13:14.005Z,28.26
2023-04-26T12:14:14.005Z,29.62
2023-04-26T12:15:15.625Z,34.01
2023-04-26T12:16:24.983Z,28.20
2023-04-26T12:17:15.028Z,24.56
2023-04-26T12:18:14.206Z,28.43
2023-04-26T12:19:13.949Z,26.65
2023-04-26T12:20:14.004Z,16.60
2023-04-26T12:21:13.966Z,14.47
2023-04-26T12:22:13.969Z,23.34
2023-04-26T12:23:13.915Z,22.25
2023-04-26T12:24:13.912Z,36.25
2023-04-26T12:25:13.930Z,37.39
2023-04-26T12:26:13.926Z,29.41
2023-04-26T12:27:13.883Z,23.02
2023-04-26T12:28:14.199Z,25.64
2023-04-26T12:29:13.882Z,35.28
2023-04-26T12:30:13.888Z,36.82
2023-04-26T12:31:13.988Z,40.18
2023-04-26T12:32:13.973Z,43.68
2023-04-26T12:33:17.602Z,42.78